Time;durP1;ratioP1;P1;durP2;ratioP2;P2;SDS_P1;SDS_P2;PMS_P1;PMS_P2;Temp;Humidity;BMP_temperature;BMP_pressure;BME280_temperature;BME280_humidity;BME280_pressure;Samples;Min_cycle;Max_cycle;Signal;HPM_P1;HPM_P2
2022/12/29 00:01:57;;;;;;;;;;;16.30;64.40;;;;;;5000524;28;19914;-89
2022/12/29 00:04:23;;;;;;;;;;;16.20;64.20;;;;;;5002650;28;19905;-89
2022/12/29 00:06:48;;;;;;;;;;;16.20;64.40;;;;;;5003391;28;19921;-90
2022/12/29 00:09:15;;;;;;;;;;;16.20;64.50;;;;;;5004698;28;20324;-88
2022/12/29 00:11:41;;;;;;;;;;;16.20;64.50;;;;;;5002503;28;19960;-87
2022/12/29 00:16:52;;;;;;;;;;;16.20;64.80;;;;;;5004142;28;19928;-91
2022/12/29 00:36:16;;;;;;;;;;;16.20;65.00;;;;;;4999884;28;19928;-92
2022/12/29 00:44:13;;;;;;;;;;;16.10;65.00;;;;;;5004051;28;20055;-88
2022/12/29 00:46:40;;;;;;;;;;;16.20;65.10;;;;;;5008670;28;19964;-89
2022/12/29 00:51:50;;;;;;;;;;;16.10;64.90;;;;;;5010198;28;19952;-90
2022/12/29 00:54:16;;;;;;;;;;;16.20;64.90;;;;;;5000608;28;20304;-91
2022/12/29 00:56:42;;;;;;;;;;;16.20;64.90;;;;;;4991855;28;19910;-92
2022/12/29 00:59:09;;;;;;;;;;;16.20;65.00;;;;;;4990174;28;20627;-92
2022/12/29 01:01:35;;;;;;;;;;;16.20;64.60;;;;;;5001645;28;19913;-91
2022/12/29 01:04:00;;;;;;;;;;;16.20;65.00;;;;;;4991399;28;19929;-91
2022/12/29 01:06:26;;;;;;;;;;;16.30;64.60;;;;;;4998399;28;19909;-91
2022/12/29 01:10:09;;;;;;;;;;;16.30;64.60;;;;;;5006445;28;19953;-90
2022/12/29 01:11:37;;;;;;;;;;;16.30;64.20;;;;;;5007801;28;19964;-89
2022/12/29 01:14:03;;;;;;;;;;;16.10;64.60;;;;;;5004231;28;19932;-89
2022/12/29 01:16:29;;;;;;;;;;;16.20;64.40;;;;;;5009716;28;19913;-92
2022/12/29 01:18:54;;;;;;;;;;;16.10;64.20;;;;;;5008466;28;20525;-92
2022/12/29 01:21:20;;;;;;;;;;;16.00;64.70;;;;;;5009007;28;19925;-92
2022/12/29 01:23:45;;;;;;;;;;;15.80;65.20;;;;;;5006493;28;19928;-89
2022/12/29 01:26:12;;;;;;;;;;;15.80;64.90;;;;;;4995878;28;20404;-90
2022/12/29 01:28:39;;;;;;;;;;;16.00;64.70;;;;;;5007671;28;20532;-92
2022/12/29 01:31:05;;;;;;;;;;;15.90;64.60;;;;;;4995521;28;19913;-88
2022/12/29 01:33:31;;;;;;;;;;;16.00;65.00;;;;;;5002393;28;20379;-90
2022/12/29 01:36:00;;;;;;;;;;;15.90;65.00;;;;;;5008739;28;19914;-89
2022/12/29 01:38:25;;;;;;;;;;;16.00;65.00;;;;;;5010361;28;19963;-88
2022/12/29 01:40:51;;;;;;;;;;;16.10;65.00;;;;;;5009924;28;19917;-92
2022/12/29 01:43:16;;;;;;;;;;;16.00;64.50;;;;;;5012641;28;19918;-91
2022/12/29 01:45:50;;;;;;;;;;;15.90;65.20;;;;;;5014018;28;19917;-89
2022/12/29 01:48:17;;;;;;;;;;;16.00;65.20;;;;;;5010411;28;19994;-89
2022/12/29 01:50:48;;;;;;;;;;;15.90;65.30;;;;;;5009887;28;19929;-91
2022/12/29 01:53:19;;;;;;;;;;;16.10;65.50;;;;;;5011745;28;19929;-89
2022/12/29 01:55:51;;;;;;;;;;;16.10;65.20;;;;;;5004250;28;19921;-91
2022/12/29 01:58:19;;;;;;;;;;;16.10;65.30;;;;;;4993998;28;19941;-91
2022/12/29 02:00:45;;;;;;;;;;;16.10;65.30;;;;;;4995219;28;19952;-88
2022/12/29 02:03:11;;;;;;;;;;;16.10;65.30;;;;;;5011584;28;20373;-91
2022/12/29 02:05:51;;;;;;;;;;;16.20;65.50;;;;;;5010561;28;19925;-92
2022/12/29 02:08:17;;;;;;;;;;;16.10;65.60;;;;;;5007876;28;19977;-94
2022/12/29 02:10:43;;;;;;;;;;;16.10;65.20;;;;;;5009015;28;19989;-92
2022/12/29 02:13:08;;;;;;;;;;;16.00;65.10;;;;;;5010038;28;19925;-89
2022/12/29 02:15:43;;;;;;;;;;;16.00;65.30;;;;;;5010883;28;19918;-88
2022/12/29 02:18:18;;;;;;;;;;;15.90;65.10;;;;;;5008991;28;20005;-91
2022/12/29 02:20:49;;;;;;;;;;;15.80;65.60;;;;;;5008033;28;20012;-90
2022/12/29 02:23:24;;;;;;;;;;;15.80;65.70;;;;;;5012147;28;19917;-89
2022/12/29 02:25:49;;;;;;;;;;;15.70;66.00;;;;;;5009312;28;20008;-92
2022/12/29 02:28:33;;;;;;;;;;;15.70;66.00;;;;;;5016494;28;19953;-90
2022/12/29 02:31:06;;;;;;;;;;;15.60;66.50;;;;;;5013721;28;20107;-88
2022/12/29 02:33:38;;;;;;;;;;;15.70;66.10;;;;;;5013769;28;19973;-88
2022/12/29 02:36:22;;;;;;;;;;;15.70;66.20;;;;;;5011818;28;19913;-89
2022/12/29 02:39:06;;;;;;;;;;;15.50;66.70;;;;;;5011709;28;19913;-88
2022/12/29 02:41:33;;;;;;;;;;;15.70;66.50;;;;;;5013846;28;19921;-92
2022/12/29 02:43:59;;;;;;;;;;;15.80;66.40;;;;;;5007280;28;19941;-91
2022/12/29 02:46:32;;;;;;;;;;;15.80;66.40;;;;;;4997743;28;19914;-91
2022/12/29 02:49:04;;;;;;;;;;;15.80;66.00;;;;;;4992185;28;20009;-89
2022/12/29 02:51:35;;;;;;;;;;;15.70;66.40;;;;;;4999214;28;19924;-91
2022/12/29 02:56:45;;;;;;;;;;;15.70;66.40;;;;;;5013261;28;19955;-89
2022/12/29 02:59:11;;;;;;;;;;;15.70;66.50;;;;;;5009184;28;19957;-89
2022/12/29 03:04:50;;;;;;;;;;;15.80;66.50;;;;;;5012818;28;20015;-91
2022/12/29 03:07:24;;;;;;;;;;;16.00;66.00;;;;;;4994555;28;19964;-92
2022/12/29 03:09:58;;;;;;;;;;;16.00;66.20;;;;;;4993163;28;19922;-92
2022/12/29 03:18:14;;;;;;;;;;;16.10;66.10;;;;;;4992618;28;20273;-88
2022/12/29 03:20:50;;;;;;;;;;;16.20;65.90;;;;;;4993308;28;20020;-89
2022/12/29 03:23:16;;;;;;;;;;;16.30;66.00;;;;;;4992372;28;20348;-88
2022/12/29 03:25:47;;;;;;;;;;;16.40;65.60;;;;;;4995226;28;20341;-88
2022/12/29 03:28:15;;;;;;;;;;;16.40;65.40;;;;;;5009359;28;19917;-88
2022/12/29 03:30:41;;;;;;;;;;;16.60;65.30;;;;;;5012923;28;19952;-88
2022/12/29 03:33:09;;;;;;;;;;;16.70;65.00;;;;;;5013638;28;19921;-89
2022/12/29 03:35:36;;;;;;;;;;;16.70;64.60;;;;;;5013525;28;19925;-88
2022/12/29 03:38:13;;;;;;;;;;;16.50;64.80;;;;;;5011441;28;19920;-92
2022/12/29 03:40:41;;;;;;;;;;;16.60;65.00;;;;;;5009523;28;19918;-89
2022/12/29 03:43:07;;;;;;;;;;;16.70;64.70;;;;;;5011922;28;19913;-91
2022/12/29 03:45:32;;;;;;;;;;;16.80;64.80;;;;;;5001525;28;19921;-91
2022/12/29 03:47:57;;;;;;;;;;;16.80;64.50;;;;;;5009690;28;19964;-92
2022/12/29 03:50:23;;;;;;;;;;;16.70;64.40;;;;;;4999696;28;19960;-91
2022/12/29 03:52:48;;;;;;;;;;;16.80;64.40;;;;;;5010587;28;19925;-89
2022/12/29 03:55:14;;;;;;;;;;;16.80;64.00;;;;;;5010781;28;19918;-89
2022/12/29 03:57:39;;;;;;;;;;;16.90;64.00;;;;;;5010607;28;19921;-88
2022/12/29 04:00:05;;;;;;;;;;;16.80;63.70;;;;;;5011349;28;19980;-92
2022/12/29 04:02:31;;;;;;;;;;;16.90;64.00;;;;;;5012275;28;20008;-88
2022/12/29 04:04:56;;;;;;;;;;;16.90;64.30;;;;;;5010489;28;19917;-88
2022/12/29 04:07:22;;;;;;;;;;;16.80;64.10;;;;;;5013186;28;20004;-90
2022/12/29 04:09:47;;;;;;;;;;;16.80;63.70;;;;;;5011503;28;19922;-92
2022/12/29 04:12:14;;;;;;;;;;;16.90;64.40;;;;;;5009982;28;19968;-91
2022/12/29 04:14:39;;;;;;;;;;;17.00;64.20;;;;;;5011137;28;19932;-89
2022/12/29 04:17:05;;;;;;;;;;;17.00;63.90;;;;;;5011212;28;19910;-92
2022/12/29 04:19:30;;;;;;;;;;;17.00;63.70;;;;;;5011490;28;19917;-88
2022/12/29 04:21:56;;;;;;;;;;;17.10;63.80;;;;;;5012400;28;19920;-94
2022/12/29 04:24:21;;;;;;;;;;;17.10;63.80;;;;;;5010209;28;19960;-89
2022/12/29 04:26:47;;;;;;;;;;;17.10;63.90;;;;;;5010255;28;19917;-89
2022/12/29 04:29:12;;;;;;;;;;;17.10;63.30;;;;;;5009917;28;19947;-90
2022/12/29 04:31:37;;;;;;;;;;;17.10;63.00;;;;;;5010198;28;19916;-92
2022/12/29 04:34:03;;;;;;;;;;;17.00;62.50;;;;;;5011709;28;19964;-93
2022/12/29 04:36:28;;;;;;;;;;;17.00;63.50;;;;;;5009769;28;19909;-89
2022/12/29 04:38:54;;;;;;;;;;;17.00;63.80;;;;;;5011615;28;20475;-89
2022/12/29 04:41:19;;;;;;;;;;;17.00;63.60;;;;;;5011379;28;19941;-93
2022/12/29 04:43:45;;;;;;;;;;;16.80;62.90;;;;;;5011572;28;19909;-89
2022/12/29 04:46:10;;;;;;;;;;;16.90;63.30;;;;;;5010083;28;19913;-89
2022/12/29 04:48:35;;;;;;;;;;;16.80;63.40;;;;;;5009891;28;19916;-89
2022/12/29 04:51:01;;;;;;;;;;;16.80;63.30;;;;;;5010678;28;20197;-91
2022/12/29 04:53:26;;;;;;;;;;;16.60;63.40;;;;;;5011866;28;20004;-90
2022/12/29 04:55:52;;;;;;;;;;;16.50;63.70;;;;;;5010817;28;20369;-89
2022/12/29 04:58:19;;;;;;;;;;;16.40;63.80;;;;;;5012546;28;19948;-93
2022/12/29 05:00:44;;;;;;;;;;;16.30;64.10;;;;;;5010441;28;20004;-89
2022/12/29 05:03:10;;;;;;;;;;;16.40;64.10;;;;;;5009647;28;20004;-90
2022/12/29 05:05:35;;;;;;;;;;;16.30;64.30;;;;;;5009690;28;20031;-92
2022/12/29 05:08:00;;;;;;;;;;;16.10;64.40;;;;;;5010913;28;19996;-91
2022/12/29 05:10:26;;;;;;;;;;;16.00;64.70;;;;;;5011553;28;20511;-89
2022/12/29 05:12:51;;;;;;;;;;;16.00;64.90;;;;;;5010882;28;19910;-91
2022/12/29 05:15:17;;;;;;;;;;;16.00;64.90;;;;;;5010548;28;19917;-90
2022/12/29 05:17:43;;;;;;;;;;;16.00;65.20;;;;;;5010628;28;19909;-89
2022/12/29 05:20:08;;;;;;;;;;;16.00;65.20;;;;;;5010449;28;19917;-91
2022/12/29 05:22:34;;;;;;;;;;;16.00;65.40;;;;;;5008227;28;20285;-90
2022/12/29 05:24:59;;;;;;;;;;;16.10;65.30;;;;;;5009380;28;19917;-89
2022/12/29 05:27:25;;;;;;;;;;;16.10;65.00;;;;;;5010623;28;19914;-92
2022/12/29 05:29:50;;;;;;;;;;;16.20;65.20;;;;;;5010455;28;19960;-91
2022/12/29 05:32:16;;;;;;;;;;;16.30;65.10;;;;;;5008271;28;19917;-92
2022/12/29 05:34:41;;;;;;;;;;;16.20;64.90;;;;;;5009920;28;19917;-90
2022/12/29 05:37:07;;;;;;;;;;;16.10;64.70;;;;;;5009988;28;19929;-90
2022/12/29 05:39:32;;;;;;;;;;;16.10;64.80;;;;;;5008343;28;19956;-90
2022/12/29 05:41:57;;;;;;;;;;;16.10;65.10;;;;;;4992831;28;19922;-89
2022/12/29 05:44:23;;;;;;;;;;;16.00;64.90;;;;;;4997994;28;19957;-90
2022/12/29 05:46:48;;;;;;;;;;;16.00;65.30;;;;;;5009067;28;19918;-91
2022/12/29 05:49:14;;;;;;;;;;;16.00;65.20;;;;;;5010212;28;19913;-91
2022/12/29 05:51:39;;;;;;;;;;;15.70;65.60;;;;;;5008948;28;19918;-90
2022/12/29 05:54:05;;;;;;;;;;;15.90;65.30;;;;;;5010196;28;19927;-89
2022/12/29 05:56:30;;;;;;;;;;;16.00;65.60;;;;;;5009982;28;19923;-89
2022/12/29 05:58:56;;;;;;;;;;;16.10;65.20;;;;;;5010327;28;19976;-91
2022/12/29 06:01:21;;;;;;;;;;;16.10;65.20;;;;;;5010067;28;20391;-89
2022/12/29 06:03:47;;;;;;;;;;;16.20;65.10;;;;;;5010437;28;20009;-89
2022/12/29 06:06:12;;;;;;;;;;;16.20;64.90;;;;;;5012749;28;19913;-91
2022/12/29 06:08:38;;;;;;;;;;;16.30;64.40;;;;;;5012328;28;19918;-92
2022/12/29 06:11:03;;;;;;;;;;;16.30;65.20;;;;;;5012920;28;19967;-92
2022/12/29 06:13:29;;;;;;;;;;;16.40;64.60;;;;;;5014017;28;19925;-89
2022/12/29 06:15:54;;;;;;;;;;;16.60;64.60;;;;;;5012691;28;19920;-90
2022/12/29 06:18:20;;;;;;;;;;;16.50;64.60;;;;;;5014191;28;19917;-91
2022/12/29 06:20:45;;;;;;;;;;;16.70;64.60;;;;;;5012464;28;19921;-91
2022/12/29 06:23:13;;;;;;;;;;;16.80;64.50;;;;;;5014075;28;19921;-88
2022/12/29 06:25:38;;;;;;;;;;;16.80;64.20;;;;;;5009423;28;19929;-91
2022/12/29 06:28:05;;;;;;;;;;;16.80;64.30;;;;;;5004807;28;19918;-92
2022/12/29 06:30:30;;;;;;;;;;;17.00;64.10;;;;;;5013697;28;19924;-88
2022/12/29 06:32:56;;;;;;;;;;;16.90;63.80;;;;;;4995098;28;20008;-87
2022/12/29 06:35:24;;;;;;;;;;;16.70;63.40;;;;;;4993577;28;19916;-91
2022/12/29 06:37:49;;;;;;;;;;;16.40;63.10;;;;;;5013660;28;19922;-93
2022/12/29 06:40:15;;;;;;;;;;;16.30;63.20;;;;;;5011714;28;20004;-93
2022/12/29 06:42:40;;;;;;;;;;;16.00;63.40;;;;;;5013770;28;19960;-89
2022/12/29 06:45:07;;;;;;;;;;;15.90;63.70;;;;;;5007905;28;19916;-89
2022/12/29 06:47:33;;;;;;;;;;;15.80;64.00;;;;;;4994006;28;20004;-90
2022/12/29 06:49:58;;;;;;;;;;;15.70;64.00;;;;;;4992303;28;19914;-88
2022/12/29 06:52:24;;;;;;;;;;;15.70;64.10;;;;;;4993089;28;20403;-88
2022/12/29 06:54:49;;;;;;;;;;;15.60;64.20;;;;;;4992091;28;20377;-89
2022/12/29 06:57:15;;;;;;;;;;;15.40;64.20;;;;;;4994388;28;19914;-91
2022/12/29 06:59:40;;;;;;;;;;;15.40;64.10;;;;;;4993414;28;20333;-89
2022/12/29 07:02:06;;;;;;;;;;;15.30;64.10;;;;;;4993357;28;20395;-88
2022/12/29 07:04:31;;;;;;;;;;;15.20;64.20;;;;;;4992183;28;20403;-91
2022/12/29 07:06:57;;;;;;;;;;;15.20;64.30;;;;;;4991848;28;19932;-91
2022/12/29 07:09:22;;;;;;;;;;;15.10;64.40;;;;;;4993002;28;19972;-91
2022/12/29 07:11:48;;;;;;;;;;;15.00;64.20;;;;;;4991774;28;20427;-90
2022/12/29 07:14:13;;;;;;;;;;;15.00;64.40;;;;;;4998648;28;20063;-89
2022/12/29 07:16:39;;;;;;;;;;;14.90;64.50;;;;;;5011181;28;19909;-89
2022/12/29 07:19:05;;;;;;;;;;;14.90;64.60;;;;;;5012765;28;19918;-90
2022/12/29 07:21:31;;;;;;;;;;;14.80;64.50;;;;;;5011296;28;19945;-91
2022/12/29 07:23:56;;;;;;;;;;;14.80;64.50;;;;;;5013104;28;19918;-90
2022/12/29 07:26:22;;;;;;;;;;;14.70;64.90;;;;;;4997286;28;19993;-90
2022/12/29 07:28:47;;;;;;;;;;;14.70;64.90;;;;;;5006570;28;19968;-90
2022/12/29 07:31:20;;;;;;;;;;;14.70;64.90;;;;;;4999439;28;19913;-88
2022/12/29 07:33:46;;;;;;;;;;;14.80;64.90;;;;;;5012131;28;20020;-91
2022/12/29 07:36:12;;;;;;;;;;;14.70;65.30;;;;;;5010705;28;19997;-91
2022/12/29 07:38:37;;;;;;;;;;;14.80;65.00;;;;;;5012209;28;19925;-88
2022/12/29 07:41:03;;;;;;;;;;;14.80;64.90;;;;;;5004618;28;19917;-89
2022/12/29 07:43:28;;;;;;;;;;;14.80;65.10;;;;;;4996770;28;19918;-90
2022/12/29 07:45:54;;;;;;;;;;;14.90;64.80;;;;;;5001441;28;19909;-91
2022/12/29 07:48:19;;;;;;;;;;;14.90;64.70;;;;;;5010920;28;19924;-92
2022/12/29 07:50:45;;;;;;;;;;;14.90;64.50;;;;;;5010814;28;19910;-91
2022/12/29 07:53:10;;;;;;;;;;;14.90;64.60;;;;;;5011687;28;19932;-89
2022/12/29 07:55:36;;;;;;;;;;;15.00;64.50;;;;;;5014087;28;19917;-91
2022/12/29 07:58:01;;;;;;;;;;;15.00;64.20;;;;;;5011192;28;19910;-89
2022/12/29 08:00:27;;;;;;;;;;;15.00;64.70;;;;;;5010408;28;19917;-89
2022/12/29 08:02:52;;;;;;;;;;;15.00;64.40;;;;;;5012788;28;19920;-89
2022/12/29 08:05:18;;;;;;;;;;;15.00;64.40;;;;;;5009651;28;19925;-90
2022/12/29 08:07:44;;;;;;;;;;;15.00;64.40;;;;;;4999942;28;20056;-90
2022/12/29 08:10:10;;;;;;;;;;;15.10;64.40;;;;;;5003784;28;19999;-89
2022/12/29 08:12:37;;;;;;;;;;;15.10;64.40;;;;;;4991577;28;20594;-89
2022/12/29 08:15:03;;;;;;;;;;;15.10;64.30;;;;;;5001526;28;20296;-91
2022/12/29 08:17:28;;;;;;;;;;;15.00;63.80;;;;;;5008917;28;19909;-89
2022/12/29 08:19:54;;;;;;;;;;;15.00;63.90;;;;;;5006502;28;20019;-89
2022/12/29 08:22:27;;;;;;;;;;;15.00;64.00;;;;;;5003664;28;20379;-91
2022/12/29 08:24:52;;;;;;;;;;;15.00;64.20;;;;;;4997975;28;19917;-91
2022/12/29 08:27:18;;;;;;;;;;;15.00;64.20;;;;;;5003358;28;19918;-91
2022/12/29 08:29:43;;;;;;;;;;;15.10;64.20;;;;;;5001085;28;19924;-90
2022/12/29 08:32:09;;;;;;;;;;;15.00;64.40;;;;;;4998193;28;19913;-89
2022/12/29 08:34:34;;;;;;;;;;;15.00;64.30;;;;;;5000589;28;20011;-89
2022/12/29 08:37:00;;;;;;;;;;;15.10;64.60;;;;;;4994396;28;20550;-89
2022/12/29 08:39:25;;;;;;;;;;;15.10;64.70;;;;;;5022640;28;19980;-91
2022/12/29 08:41:51;;;;;;;;;;;15.20;64.90;;;;;;5004288;28;19913;-92
2022/12/29 08:44:19;;;;;;;;;;;15.30;65.10;;;;;;5008010;28;19956;-88
2022/12/29 08:46:45;;;;;;;;;;;15.40;65.10;;;;;;5004779;28;19913;-92
2022/12/29 08:49:10;;;;;;;;;;;15.50;65.10;;;;;;4991858;28;19932;-88
2022/12/29 08:51:35;;;;;;;;;;;15.60;65.30;;;;;;5007444;28;20788;-88
2022/12/29 08:54:01;;;;;;;;;;;15.60;64.50;;;;;;5007917;28;19925;-89
2022/12/29 08:56:27;;;;;;;;;;;15.50;64.50;;;;;;5006462;28;19975;-90
2022/12/29 08:58:53;;;;;;;;;;;15.40;64.60;;;;;;5006677;28;19936;-90
2022/12/29 09:01:19;;;;;;;;;;;15.30;64.50;;;;;;5006314;28;20351;-88
2022/12/29 09:03:44;;;;;;;;;;;15.30;64.50;;;;;;5005817;28;19913;-88
2022/12/29 09:06:10;;;;;;;;;;;15.20;64.80;;;;;;4998728;28;19913;-89
2022/12/29 09:08:35;;;;;;;;;;;15.20;65.00;;;;;;5000744;28;19921;-89
2022/12/29 09:11:11;;;;;;;;;;;15.30;65.20;;;;;;4997490;28;20381;-89
2022/12/29 09:13:37;;;;;;;;;;;15.30;65.40;;;;;;5003016;28;19937;-90
2022/12/29 09:16:03;;;;;;;;;;;15.40;65.30;;;;;;5000481;28;19934;-89
2022/12/29 09:18:29;;;;;;;;;;;15.40;65.00;;;;;;5003102;28;19924;-91
2022/12/29 09:20:58;;;;;;;;;;;15.30;64.80;;;;;;4999435;28;19971;-89
2022/12/29 09:23:23;;;;;;;;;;;15.30;64.50;;;;;;4997825;28;19996;-91
2022/12/29 09:25:49;;;;;;;;;;;15.40;65.30;;;;;;5004354;28;20019;-92
2022/12/29 09:28:14;;;;;;;;;;;15.60;65.90;;;;;;5004968;28;20352;-92
2022/12/29 09:30:41;;;;;;;;;;;15.80;66.40;;;;;;5000134;28;19925;-91
2022/12/29 09:33:06;;;;;;;;;;;16.00;66.50;;;;;;5001948;28;20377;-91
2022/12/29 09:35:32;;;;;;;;;;;16.30;66.30;;;;;;4996913;28;19968;-93
2022/12/29 09:37:57;;;;;;;;;;;16.50;65.90;;;;;;5005275;28;19918;-89
2022/12/29 09:40:29;;;;;;;;;;;16.60;65.60;;;;;;5002198;28;19921;-88
2022/12/29 09:43:01;;;;;;;;;;;16.70;65.50;;;;;;5003942;28;19957;-87
2022/12/29 09:45:33;;;;;;;;;;;16.80;65.50;;;;;;5007235;28;19926;-91
2022/12/29 09:47:59;;;;;;;;;;;16.90;65.50;;;;;;4997109;28;19914;-89
2022/12/29 09:50:32;;;;;;;;;;;17.00;65.00;;;;;;4998054;28;20418;-91
2022/12/29 09:53:07;;;;;;;;;;;17.00;64.70;;;;;;5021815;28;19922;-92
2022/12/29 09:55:38;;;;;;;;;;;16.90;64.40;;;;;;5007270;28;20281;-91
2022/12/29 09:58:05;;;;;;;;;;;16.80;64.00;;;;;;5004033;28;19924;-92
2022/12/29 10:00:40;;;;;;;;;;;16.70;63.90;;;;;;5005073;28;20476;-91
2022/12/29 10:03:10;;;;;;;;;;;16.70;63.80;;;;;;5008040;28;19921;-89
2022/12/29 10:05:40;;;;;;;;;;;16.60;63.70;;;;;;5000996;28;20336;-89
2022/12/29 10:08:05;;;;;;;;;;;16.50;63.70;;;;;;4995998;28;19914;-89
2022/12/29 10:10:37;;;;;;;;;;;16.60;64.10;;;;;;5007735;28;19945;-88
2022/12/29 10:13:21;;;;;;;;;;;16.60;64.00;;;;;;5002123;28;19918;-92
2022/12/29 10:15:56;;;;;;;;;;;16.70;63.70;;;;;;5020993;28;19924;-92
2022/12/29 10:18:34;;;;;;;;;;;16.60;63.70;;;;;;5014436;28;20316;-93
2022/12/29 10:21:04;;;;;;;;;;;16.60;63.50;;;;;;5008435;28;19932;-90
2022/12/29 10:23:33;;;;;;;;;;;16.70;64.10;;;;;;5012373;28;19917;-93
2022/12/29 10:26:00;;;;;;;;;;;16.80;64.30;;;;;;5006000;28;20442;-92
2022/12/29 10:28:43;;;;;;;;;;;17.10;64.70;;;;;;5011641;28;19921;-92
2022/12/29 10:31:13;;;;;;;;;;;17.30;64.90;;;;;;5001955;28;19957;-93
2022/12/29 10:33:41;;;;;;;;;;;17.60;65.10;;;;;;5002686;28;19926;-94
2022/12/29 10:36:23;;;;;;;;;;;17.80;64.80;;;;;;5000326;28;19917;-92
2022/12/29 10:39:04;;;;;;;;;;;18.00;65.10;;;;;;5008675;28;20276;-93
2022/12/29 10:41:39;;;;;;;;;;;18.50;65.40;;;;;;5001009;28;19913;-89
2022/12/29 10:44:08;;;;;;;;;;;18.70;64.70;;;;;;5005234;28;19922;-92
2022/12/29 10:46:35;;;;;;;;;;;19.10;64.60;;;;;;5031293;28;20471;-93
2022/12/29 10:49:01;;;;;;;;;;;19.20;62.80;;;;;;5006096;28;19933;-93
2022/12/29 10:51:33;;;;;;;;;;;19.10;62.30;;;;;;5005649;28;19924;-93
2022/12/29 10:54:01;;;;;;;;;;;19.00;61.90;;;;;;5007958;28;19930;-90
2022/12/29 10:56:29;;;;;;;;;;;18.90;62.00;;;;;;5010435;28;19961;-90
2022/12/29 10:58:57;;;;;;;;;;;18.80;62.10;;;;;;5026001;28;20443;-94
2022/12/29 11:01:25;;;;;;;;;;;18.70;61.20;;;;;;5011397;28;19980;-93
2022/12/29 11:04:05;;;;;;;;;;;18.50;61.40;;;;;;5026396;28;19922;-91
2022/12/29 11:06:31;;;;;;;;;;;18.40;62.00;;;;;;5013691;28;19917;-92
2022/12/29 11:09:04;;;;;;;;;;;18.30;61.20;;;;;;5007519;28;20459;-91
2022/12/29 11:11:33;;;;;;;;;;;18.20;61.60;;;;;;5007784;28;20014;-90
2022/12/29 11:14:11;;;;;;;;;;;18.10;61.40;;;;;;5010710;28;19929;-89
2022/12/29 11:16:37;;;;;;;;;;;18.00;61.20;;;;;;5007631;28;19957;-92
2022/12/29 11:19:02;;;;;;;;;;;18.00;61.60;;;;;;5006785;28;19964;-92
2022/12/29 11:21:33;;;;;;;;;;;17.90;61.40;;;;;;5005313;28;19925;-92
2022/12/29 11:24:05;;;;;;;;;;;17.80;61.50;;;;;;5007049;28;20295;-92
2022/12/29 11:26:41;;;;;;;;;;;17.80;61.60;;;;;;4973815;28;19925;-92
2022/12/29 11:29:15;;;;;;;;;;;17.70;61.00;;;;;;5006343;28;19917;-93
2022/12/29 11:31:48;;;;;;;;;;;17.70;61.90;;;;;;5005213;28;19925;-90
2022/12/29 11:34:21;;;;;;;;;;;17.50;61.40;;;;;;5007751;28;20028;-91
2022/12/29 11:36:48;;;;;;;;;;;17.50;61.40;;;;;;5007326;28;19921;-92
2022/12/29 11:39:25;;;;;;;;;;;17.50;61.70;;;;;;5006196;28;19960;-91
2022/12/29 11:41:52;;;;;;;;;;;17.40;61.80;;;;;;5007160;28;19948;-90
2022/12/29 11:44:17;;;;;;;;;;;17.30;62.10;;;;;;5006741;28;19924;-91
2022/12/29 11:46:46;;;;;;;;;;;17.30;61.90;;;;;;5007595;28;19917;-92
2022/12/29 11:49:13;;;;;;;;;;;17.30;61.80;;;;;;5007549;28;19929;-92
2022/12/29 11:51:44;;;;;;;;;;;17.20;62.10;;;;;;5005992;28;20556;-92
2022/12/29 11:54:13;;;;;;;;;;;17.30;62.30;;;;;;5008264;28;19931;-92
2022/12/29 11:56:41;;;;;;;;;;;17.30;62.60;;;;;;5007441;28;19921;-93
2022/12/29 11:59:34;;;;;;;;;;;17.30;62.20;;;;;;5004123;28;20501;-90
2022/12/29 12:02:01;;;;;;;;;;;17.40;62.30;;;;;;5001597;28;19922;-90
2022/12/29 12:04:32;;;;;;;;;;;17.30;62.10;;;;;;5007141;28;19920;-92
2022/12/29 12:07:05;;;;;;;;;;;17.40;62.50;;;;;;5007239;28;19929;-90
2022/12/29 12:09:40;;;;;;;;;;;17.40;61.90;;;;;;5006528;28;20169;-90
2022/12/29 12:12:09;;;;;;;;;;;17.40;62.10;;;;;;5008790;28;19921;-92
2022/12/29 12:14:36;;;;;;;;;;;17.50;62.50;;;;;;5009956;28;19921;-92
2022/12/29 12:17:04;;;;;;;;;;;17.50;61.70;;;;;;5007673;28;19996;-90
2022/12/29 12:19:30;;;;;;;;;;;17.40;61.30;;;;;;5005913;28;20007;-92
2022/12/29 12:22:00;;;;;;;;;;;17.50;61.80;;;;;;5009794;28;20586;-91
2022/12/29 12:24:35;;;;;;;;;;;17.50;61.80;;;;;;5009182;28;19913;-90
2022/12/29 12:27:16;;;;;;;;;;;17.50;61.70;;;;;;5010549;28;19996;-93
2022/12/29 12:29:59;;;;;;;;;;;17.50;61.80;;;;;;5004442;28;19924;-92
2022/12/29 12:32:32;;;;;;;;;;;17.40;60.30;;;;;;4989938;28;20586;-92
2022/12/29 12:34:57;;;;;;;;;;;17.40;61.40;;;;;;5004669;28;19929;-93
2022/12/29 12:37:29;;;;;;;;;;;17.40;61.80;;;;;;5019433;28;19932;-90
2022/12/29 12:40:13;;;;;;;;;;;17.50;61.50;;;;;;5000597;28;19952;-92
2022/12/29 12:42:49;;;;;;;;;;;17.60;61.50;;;;;;5009190;28;19928;-90
2022/12/29 12:45:33;;;;;;;;;;;17.60;61.80;;;;;;5011503;28;19936;-92
2022/12/29 12:48:18;;;;;;;;;;;17.60;60.80;;;;;;5007455;28;20360;-93
2022/12/29 12:50:49;;;;;;;;;;;17.60;60.50;;;;;;5006186;28;19921;-93
2022/12/29 12:53:18;;;;;;;;;;;17.40;59.80;;;;;;5010386;28;20052;-90
2022/12/29 12:55:56;;;;;;;;;;;17.50;60.70;;;;;;5006307;28;22343;-90
2022/12/29 12:58:48;;;;;;;;;;;17.60;60.30;;;;;;5010087;28;19915;-89
2022/12/29 13:01:13;;;;;;;;;;;17.50;60.70;;;;;;4995974;28;19925;-91
2022/12/29 13:03:46;;;;;;;;;;;17.60;60.40;;;;;;5004606;28;19929;-91
2022/12/29 13:06:18;;;;;;;;;;;17.60;61.30;;;;;;5009368;28;19917;-91
2022/12/29 13:08:43;;;;;;;;;;;17.60;61.60;;;;;;5007108;28;19917;-92
2022/12/29 13:11:27;;;;;;;;;;;17.70;61.20;;;;;;5005749;28;19925;-91
2022/12/29 13:13:53;;;;;;;;;;;17.70;61.70;;;;;;5021526;28;20036;-89
2022/12/29 13:16:28;;;;;;;;;;;17.70;60.80;;;;;;5010374;28;19972;-90
2022/12/29 13:18:56;;;;;;;;;;;17.70;61.20;;;;;;5006256;28;19917;-91
2022/12/29 13:21:28;;;;;;;;;;;17.70;61.40;;;;;;5004198;28;19917;-92
2022/12/29 13:24:01;;;;;;;;;;;17.70;61.20;;;;;;5001018;28;19940;-90
2022/12/29 13:26:40;;;;;;;;;;;17.70;60.50;;;;;;4991151;28;19917;-89
2022/12/29 13:29:20;;;;;;;;;;;17.70;59.40;;;;;;5003817;28;20004;-90
2022/12/29 13:32:02;;;;;;;;;;;17.70;60.00;;;;;;5006819;28;19996;-90
2022/12/29 13:34:36;;;;;;;;;;;17.60;60.70;;;;;;5007077;28;19926;-91
2022/12/29 13:37:04;;;;;;;;;;;17.60;59.90;;;;;;5002794;28;19921;-89
2022/12/29 13:39:38;;;;;;;;;;;17.60;60.40;;;;;;5005072;28;19987;-91
2022/12/29 13:42:05;;;;;;;;;;;17.50;58.80;;;;;;4993386;28;19918;-88
2022/12/29 13:44:47;;;;;;;;;;;17.60;60.00;;;;;;4989984;28;19984;-90
2022/12/29 13:47:15;;;;;;;;;;;17.60;60.30;;;;;;5007555;28;19975;-90
2022/12/29 13:49:41;;;;;;;;;;;17.50;59.50;;;;;;5003062;28;19984;-91
2022/12/29 13:52:16;;;;;;;;;;;17.50;59.40;;;;;;5007195;28;20356;-91
2022/12/29 13:54:48;;;;;;;;;;;17.50;60.30;;;;;;5007855;28;19975;-91
2022/12/29 13:57:34;;;;;;;;;;;17.50;59.30;;;;;;5005777;28;20341;-91
2022/12/29 14:00:04;;;;;;;;;;;17.40;60.30;;;;;;4996453;28;19926;-90
2022/12/29 14:02:42;;;;;;;;;;;17.50;60.70;;;;;;5021647;28;19921;-91
2022/12/29 14:05:19;;;;;;;;;;;17.30;60.00;;;;;;5007274;28;20549;-89
2022/12/29 14:07:45;;;;;;;;;;;17.30;60.00;;;;;;5005674;28;20291;-90
2022/12/29 14:10:29;;;;;;;;;;;17.30;60.60;;;;;;5003004;28;19928;-89
2022/12/29 14:13:06;;;;;;;;;;;17.30;60.50;;;;;;5004236;28;20376;-90
2022/12/29 14:15:32;;;;;;;;;;;17.30;60.40;;;;;;5011208;28;19947;-89
2022/12/29 14:18:05;;;;;;;;;;;17.30;59.60;;;;;;5009898;28;19921;-91
2022/12/29 14:20:31;;;;;;;;;;;17.30;59.90;;;;;;5002428;28;19929;-91
2022/12/29 14:23:00;;;;;;;;;;;17.20;59.90;;;;;;5006274;28;20604;-90
2022/12/29 14:25:47;;;;;;;;;;;17.20;59.60;;;;;;5007278;28;19918;-90
2022/12/29 14:28:24;;;;;;;;;;;17.30;59.60;;;;;;5009654;28;19922;-90
2022/12/29 14:30:53;;;;;;;;;;;17.30;59.40;;;;;;5020747;28;19967;-92
2022/12/29 14:33:19;;;;;;;;;;;17.30;59.30;;;;;;5003461;28;20440;-90
2022/12/29 14:35:49;;;;;;;;;;;17.20;59.20;;;;;;4995210;28;19917;-93
2022/12/29 14:38:23;;;;;;;;;;;17.30;59.10;;;;;;5009093;28;20009;-90
2022/12/29 14:40:49;;;;;;;;;;;17.20;59.70;;;;;;5002752;28;19976;-91
2022/12/29 14:43:20;;;;;;;;;;;17.10;59.50;;;;;;5008840;28;19961;-92
2022/12/29 14:45:51;;;;;;;;;;;17.00;59.60;;;;;;5010993;28;19952;-90
2022/12/29 14:48:21;;;;;;;;;;;17.00;59.30;;;;;;5017278;28;20239;-89
2022/12/29 14:50:47;;;;;;;;;;;16.90;59.70;;;;;;5002511;28;19924;-91
2022/12/29 14:53:31;;;;;;;;;;;16.90;59.80;;;;;;5008604;28;19929;-91
2022/12/29 14:55:57;;;;;;;;;;;16.90;60.00;;;;;;5025812;28;19925;-90
2022/12/29 14:58:35;;;;;;;;;;;16.90;60.10;;;;;;5011983;28;19925;-89
2022/12/29 15:01:01;;;;;;;;;;;16.90;59.90;;;;;;5005625;28;19975;-89
2022/12/29 15:03:32;;;;;;;;;;;16.80;59.50;;;;;;5007016;28;19925;-92
2022/12/29 15:06:04;;;;;;;;;;;16.80;59.90;;;;;;5008286;28;20004;-90